sensor_id;sensor_type;location;lat;lon;timestamp;pressure;altitude;pressure_sealevel;temperature;humidity
77017;BME280;65949;53.132;17.930;2024-02-26T00:01:48;100172.09;;;2.60;92.63
77017;BME280;65949;53.132;17.930;2024-02-26T00:04:15;100170.61;;;2.55;92.28
77017;BME280;65949;53.132;17.930;2024-02-26T00:06:42;100169.80;;;2.50;92.21
77017;BME280;65949;53.132;17.930;2024-02-26T00:09:10;100170.34;;;2.45;92.10
77017;BME280;65949;53.132;17.930;2024-02-26T00:11:37;100168.88;;;2.41;92.24
77017;BME280;65949;53.132;17.930;2024-02-26T00:14:04;100165.93;;;2.37;92.10
77017;BME280;65949;53.132;17.930;2024-02-26T00:16:30;100166.92;;;2.34;92.41
77017;BME280;65949;53.132;17.930;2024-02-26T00:18:57;100166.66;;;2.31;92.15
77017;BME280;65949;53.132;17.930;2024-02-26T00:21:24;100167.64;;;2.28;92.31
77017;BME280;65949;53.132;17.930;2024-02-26T00:23:52;100168.48;;;2.25;92.38
77017;BME280;65949;53.132;17.930;2024-02-26T00:26:19;100167.33;;;2.22;92.44
77017;BME280;65949;53.132;17.930;2024-02-26T00:28:45;100167.52;;;2.21;92.37
77017;BME280;65949;53.132;17.930;2024-02-26T00:31:12;100168.17;;;2.19;92.38
77017;BME280;65949;53.132;17.930;2024-02-26T00:33:39;100168.20;;;2.16;92.52
77017;BME280;65949;53.132;17.930;2024-02-26T00:36:06;100162.86;;;2.15;92.64
77017;BME280;65949;53.132;17.930;2024-02-26T00:38:32;100162.56;;;2.15;92.90
77017;BME280;65949;53.132;17.930;2024-02-26T00:40:59;100160.30;;;2.15;92.86
77017;BME280;65949;53.132;17.930;2024-02-26T00:43:26;100158.89;;;2.14;92.49
77017;BME280;65949;53.132;17.930;2024-02-26T00:45:52;100160.96;;;2.13;92.27
77017;BME280;65949;53.132;17.930;2024-02-26T00:48:19;100164.40;;;2.11;92.12
77017;BME280;65949;53.132;17.930;2024-02-26T00:50:46;100163.02;;;2.10;91.93
77017;BME280;65949;53.132;17.930;2024-02-26T00:53:13;100161.05;;;2.11;92.15
77017;BME280;65949;53.132;17.930;2024-02-26T00:55:39;100157.55;;;2.13;92.11
77017;BME280;65949;53.132;17.930;2024-02-26T00:58:06;100155.31;;;2.15;92.30
77017;BME280;65949;53.132;17.930;2024-02-26T01:00:33;100156.73;;;2.19;92.48
77017;BME280;65949;53.132;17.930;2024-02-26T01:03:00;100151.11;;;2.23;92.57
77017;BME280;65949;53.132;17.930;2024-02-26T01:05:27;100149.85;;;2.27;92.59
77017;BME280;65949;53.132;17.930;2024-02-26T01:07:54;100146.98;;;2.32;92.78
77017;BME280;65949;53.132;17.930;2024-02-26T01:10:21;100142.48;;;2.36;92.78
77017;BME280;65949;53.132;17.930;2024-02-26T01:12:47;100144.09;;;2.39;92.85
77017;BME280;65949;53.132;17.930;2024-02-26T01:15:14;100149.41;;;2.42;92.69
77017;BME280;65949;53.132;17.930;2024-02-26T01:17:41;100157.67;;;2.41;92.74
77017;BME280;65949;53.132;17.930;2024-02-26T01:20:08;100157.54;;;2.39;92.84
77017;BME280;65949;53.132;17.930;2024-02-26T01:22:35;100161.25;;;2.39;92.81
77017;BME280;65949;53.132;17.930;2024-02-26T01:25:02;100164.52;;;2.39;92.76
77017;BME280;65949;53.132;17.930;2024-02-26T01:27:29;100165.55;;;2.38;92.79
77017;BME280;65949;53.132;17.930;2024-02-26T01:29:56;100163.80;;;2.37;92.63
77017;BME280;65949;53.132;17.930;2024-02-26T01:32:22;100164.61;;;2.36;92.80
77017;BME280;65949;53.132;17.930;2024-02-26T01:34:49;100166.16;;;2.35;93.00
77017;BME280;65949;53.132;17.930;2024-02-26T01:37:16;100166.16;;;2.34;93.14
77017;BME280;65949;53.132;17.930;2024-02-26T01:39:43;100164.05;;;2.35;92.97
77017;BME280;65949;53.132;17.930;2024-02-26T01:42:10;100166.25;;;2.34;92.98
77017;BME280;65949;53.132;17.930;2024-02-26T01:44:36;100168.42;;;2.34;93.08
77017;BME280;65949;53.132;17.930;2024-02-26T01:47:07;100170.22;;;2.36;93.24
77017;BME280;65949;53.132;17.930;2024-02-26T01:49:35;100172.26;;;2.39;93.35
77017;BME280;65949;53.132;17.930;2024-02-26T01:52:04;100173.98;;;2.41;93.67
77017;BME280;65949;53.132;17.930;2024-02-26T01:54:35;100174.95;;;2.43;93.50
77017;BME280;65949;53.132;17.930;2024-02-26T01:57:02;100172.66;;;2.43;93.70
77017;BME280;65949;53.132;17.930;2024-02-26T01:59:30;100168.59;;;2.42;93.51
77017;BME280;65949;53.132;17.930;2024-02-26T02:01:59;100169.31;;;2.40;93.58
77017;BME280;65949;53.132;17.930;2024-02-26T02:04:28;100173.73;;;2.38;93.66
77017;BME280;65949;53.132;17.930;2024-02-26T02:06:55;100172.27;;;2.33;93.90
77017;BME280;65949;53.132;17.930;2024-02-26T02:09:23;100173.68;;;2.30;93.84
77017;BME280;65949;53.132;17.930;2024-02-26T02:11:50;100170.61;;;2.27;93.83
77017;BME280;65949;53.132;17.930;2024-02-26T02:14:17;100168.62;;;2.24;93.97
77017;BME280;65949;53.132;17.930;2024-02-26T02:16:43;100172.42;;;2.18;93.88
77017;BME280;65949;53.132;17.930;2024-02-26T02:19:10;100166.56;;;2.13;94.00
77017;BME280;65949;53.132;17.930;2024-02-26T02:21:37;100160.08;;;2.08;93.99
77017;BME280;65949;53.132;17.930;2024-02-26T02:24:04;100163.86;;;2.04;94.03
77017;BME280;65949;53.132;17.930;2024-02-26T02:26:31;100166.84;;;1.96;93.95
77017;BME280;65949;53.132;17.930;2024-02-26T02:28:58;100168.84;;;1.87;94.20
77017;BME280;65949;53.132;17.930;2024-02-26T02:31:25;100162.51;;;1.82;94.65
77017;BME280;65949;53.132;17.930;2024-02-26T02:33:53;100160.90;;;1.80;94.72
77017;BME280;65949;53.132;17.930;2024-02-26T02:36:19;100170.05;;;1.77;94.54
77017;BME280;65949;53.132;17.930;2024-02-26T02:38:50;100177.10;;;1.72;94.82
77017;BME280;65949;53.132;17.930;2024-02-26T02:41:18;100175.14;;;1.65;94.78
77017;BME280;65949;53.132;17.930;2024-02-26T02:43:45;100173.75;;;1.64;94.97
77017;BME280;65949;53.132;17.930;2024-02-26T02:46:11;100176.78;;;1.64;95.02
77017;BME280;65949;53.132;17.930;2024-02-26T02:48:38;100184.81;;;1.64;94.91
77017;BME280;65949;53.132;17.930;2024-02-26T02:51:05;100187.66;;;1.66;94.89
77017;BME280;65949;53.132;17.930;2024-02-26T02:53:32;100183.23;;;1.64;94.55
77017;BME280;65949;53.132;17.930;2024-02-26T02:55:58;100187.22;;;1.65;94.67
77017;BME280;65949;53.132;17.930;2024-02-26T02:58:25;100187.41;;;1.68;94.76
77017;BME280;65949;53.132;17.930;2024-02-26T03:00:52;100186.95;;;1.71;95.08
77017;BME280;65949;53.132;17.930;2024-02-26T03:03:21;100187.02;;;1.74;94.95
77017;BME280;65949;53.132;17.930;2024-02-26T03:05:50;100185.19;;;1.77;95.07
77017;BME280;65949;53.132;17.930;2024-02-26T03:08:17;100184.90;;;1.77;95.11
77017;BME280;65949;53.132;17.930;2024-02-26T03:10:46;100176.77;;;1.78;95.14
77017;BME280;65949;53.132;17.930;2024-02-26T03:13:13;100175.41;;;1.79;95.28
77017;BME280;65949;53.132;17.930;2024-02-26T03:15:40;100171.61;;;1.78;95.01
77017;BME280;65949;53.132;17.930;2024-02-26T03:18:07;100165.89;;;1.76;94.91
77017;BME280;65949;53.132;17.930;2024-02-26T03:20:34;100157.19;;;1.73;95.02
77017;BME280;65949;53.132;17.930;2024-02-26T03:23:00;100156.10;;;1.69;94.83
77017;BME280;65949;53.132;17.930;2024-02-26T03:25:27;100159.65;;;1.64;94.92
77017;BME280;65949;53.132;17.930;2024-02-26T03:27:54;100162.04;;;1.60;94.85
77017;BME280;65949;53.132;17.930;2024-02-26T03:30:21;100160.41;;;1.56;94.99
77017;BME280;65949;53.132;17.930;2024-02-26T03:32:47;100155.64;;;1.53;95.13
77017;BME280;65949;53.132;17.930;2024-02-26T03:35:14;100154.02;;;1.51;95.23
77017;BME280;65949;53.132;17.930;2024-02-26T03:37:41;100151.03;;;1.50;95.02
77017;BME280;65949;53.132;17.930;2024-02-26T03:40:08;100151.48;;;1.49;95.11
77017;BME280;65949;53.132;17.930;2024-02-26T03:42:34;100149.82;;;1.47;95.05
77017;BME280;65949;53.132;17.930;2024-02-26T03:45:01;100153.38;;;1.46;95.21
77017;BME280;65949;53.132;17.930;2024-02-26T03:47:28;100152.99;;;1.43;95.12
77017;BME280;65949;53.132;17.930;2024-02-26T03:49:55;100159.34;;;1.39;95.02
77017;BME280;65949;53.132;17.930;2024-02-26T03:52:22;100168.12;;;1.35;95.10
77017;BME280;65949;53.132;17.930;2024-02-26T03:54:48;100170.63;;;1.31;95.23
77017;BME280;65949;53.132;17.930;2024-02-26T03:57:15;100175.84;;;1.29;95.45
77017;BME280;65949;53.132;17.930;2024-02-26T03:59:42;100180.69;;;1.32;95.93
77017;BME280;65949;53.132;17.930;2024-02-26T04:02:08;100182.27;;;1.35;96.09
77017;BME280;65949;53.132;17.930;2024-02-26T04:04:36;100184.14;;;1.40;96.39
77017;BME280;65949;53.132;17.930;2024-02-26T04:07:03;100182.58;;;1.45;96.50
77017;BME280;65949;53.132;17.930;2024-02-26T04:09:31;100176.23;;;1.52;96.54
77017;BME280;65949;53.132;17.930;2024-02-26T04:11:58;100170.04;;;1.56;96.47
77017;BME280;65949;53.132;17.930;2024-02-26T04:14:25;100165.91;;;1.61;96.53
77017;BME280;65949;53.132;17.930;2024-02-26T04:16:52;100165.86;;;1.65;96.68
77017;BME280;65949;53.132;17.930;2024-02-26T04:19:21;100168.61;;;1.70;96.64
77017;BME280;65949;53.132;17.930;2024-02-26T04:21:47;100170.90;;;1.73;96.71
77017;BME280;65949;53.132;17.930;2024-02-26T04:24:14;100173.38;;;1.75;96.72
77017;BME280;65949;53.132;17.930;2024-02-26T04:26:41;100176.08;;;1.74;96.71
77017;BME280;65949;53.132;17.930;2024-02-26T04:29:08;100176.52;;;1.73;96.86
77017;BME280;65949;53.132;17.930;2024-02-26T04:31:34;100179.67;;;1.73;96.88
77017;BME280;65949;53.132;17.930;2024-02-26T04:34:01;100177.45;;;1.73;96.91
77017;BME280;65949;53.132;17.930;2024-02-26T04:36:28;100170.10;;;1.73;96.97
77017;BME280;65949;53.132;17.930;2024-02-26T04:38:54;100170.53;;;1.68;96.85
77017;BME280;65949;53.132;17.930;2024-02-26T04:41:22;100170.77;;;1.67;96.83
77017;BME280;65949;53.132;17.930;2024-02-26T04:43:49;100174.77;;;1.65;97.04
77017;BME280;65949;53.132;17.930;2024-02-26T04:46:15;100179.52;;;1.64;97.01
77017;BME280;65949;53.132;17.930;2024-02-26T04:48:42;100179.86;;;1.60;96.92
77017;BME280;65949;53.132;17.930;2024-02-26T04:51:09;100182.96;;;1.56;97.02
77017;BME280;65949;53.132;17.930;2024-02-26T04:53:36;100182.10;;;1.52;96.95
77017;BME280;65949;53.132;17.930;2024-02-26T04:56:03;100186.23;;;1.47;96.93
77017;BME280;65949;53.132;17.930;2024-02-26T04:58:30;100185.42;;;1.43;97.06
77017;BME280;65949;53.132;17.930;2024-02-26T05:00:56;100186.42;;;1.40;97.21
77017;BME280;65949;53.132;17.930;2024-02-26T05:03:23;100188.61;;;1.35;97.09
77017;BME280;65949;53.132;17.930;2024-02-26T05:05:50;100191.58;;;1.28;97.15
77017;BME280;65949;53.132;17.930;2024-02-26T05:08:16;100195.73;;;1.23;97.33
77017;BME280;65949;53.132;17.930;2024-02-26T05:10:45;100205.70;;;1.19;97.42
77017;BME280;65949;53.132;17.930;2024-02-26T05:13:12;100206.14;;;1.15;97.41
77017;BME280;65949;53.132;17.930;2024-02-26T05:15:41;100207.92;;;1.12;97.49
77017;BME280;65949;53.132;17.930;2024-02-26T05:18:07;100214.52;;;1.09;97.50
77017;BME280;65949;53.132;17.930;2024-02-26T05:20:34;100219.36;;;1.09;97.82
77017;BME280;65949;53.132;17.930;2024-02-26T05:23:02;100218.59;;;1.09;97.87
77017;BME280;65949;53.132;17.930;2024-02-26T05:25:30;100224.05;;;1.11;97.72
77017;BME280;65949;53.132;17.930;2024-02-26T05:27:57;100225.86;;;1.09;97.54
77017;BME280;65949;53.132;17.930;2024-02-26T05:30:24;100226.55;;;1.07;97.47
77017;BME280;65949;53.132;17.930;2024-02-26T05:32:51;100227.12;;;1.07;97.59
77017;BME280;65949;53.132;17.930;2024-02-26T05:35:17;100228.55;;;1.08;97.69
77017;BME280;65949;53.132;17.930;2024-02-26T05:37:44;100238.07;;;1.07;97.64
77017;BME280;65949;53.132;17.930;2024-02-26T05:40:11;100242.80;;;1.05;97.49
77017;BME280;65949;53.132;17.930;2024-02-26T05:42:38;100244.39;;;1.05;97.48
77017;BME280;65949;53.132;17.930;2024-02-26T05:45:06;100246.91;;;1.01;97.21
77017;BME280;65949;53.132;17.930;2024-02-26T05:47:33;100248.39;;;0.96;97.15
77017;BME280;65949;53.132;17.930;2024-02-26T05:50:01;100251.04;;;0.96;97.45
77017;BME280;65949;53.132;17.930;2024-02-26T05:52:28;100256.55;;;0.95;97.42
77017;BME280;65949;53.132;17.930;2024-02-26T05:54:58;100256.04;;;0.97;97.47
77017;BME280;65949;53.132;17.930;2024-02-26T05:57:24;100252.57;;;0.94;97.27
77017;BME280;65949;53.132;17.930;2024-02-26T05:59:51;100254.30;;;0.93;97.19
77017;BME280;65949;53.132;17.930;2024-02-26T06:02:18;100253.23;;;0.89;96.93
77017;BME280;65949;53.132;17.930;2024-02-26T06:04:44;100258.81;;;0.85;96.91
77017;BME280;65949;53.132;17.930;2024-02-26T06:07:12;100257.92;;;0.82;97.10
77017;BME280;65949;53.132;17.930;2024-02-26T06:09:39;100258.81;;;0.81;97.00
77017;BME280;65949;53.132;17.930;2024-02-26T06:12:07;100258.81;;;0.78;97.15
77017;BME280;65949;53.132;17.930;2024-02-26T06:14:33;100258.18;;;0.77;97.12
77017;BME280;65949;53.132;17.930;2024-02-26T06:17:00;100261.34;;;0.76;97.15
77017;BME280;65949;53.132;17.930;2024-02-26T06:19:27;100263.91;;;0.74;97.22
77017;BME280;65949;53.132;17.930;2024-02-26T06:21:54;100267.35;;;0.77;97.57
77017;BME280;65949;53.132;17.930;2024-02-26T06:24:20;100267.89;;;0.81;97.70
77017;BME280;65949;53.132;17.930;2024-02-26T06:26:48;100270.14;;;0.86;97.71
77017;BME280;65949;53.132;17.930;2024-02-26T06:29:15;100275.12;;;0.86;97.18
77017;BME280;65949;53.132;17.930;2024-02-26T06:31:42;100273.50;;;0.86;97.21
77017;BME280;65949;53.132;17.930;2024-02-26T06:34:09;100275.59;;;0.87;97.31
77017;BME280;65949;53.132;17.930;2024-02-26T06:36:36;100269.42;;;0.87;97.25
77017;BME280;65949;53.132;17.930;2024-02-26T06:39:02;100271.67;;;0.88;97.29
77017;BME280;65949;53.132;17.930;2024-02-26T06:41:29;100271.27;;;0.87;97.26
77017;BME280;65949;53.132;17.930;2024-02-26T06:43:56;100275.35;;;0.82;97.05
77017;BME280;65949;53.132;17.930;2024-02-26T06:46:23;100274.95;;;0.80;97.43
77017;BME280;65949;53.132;17.930;2024-02-26T06:48:51;100279.25;;;0.84;97.76
77017;BME280;65949;53.132;17.930;2024-02-26T06:51:17;100283.05;;;0.90;97.98
77017;BME280;65949;53.132;17.930;2024-02-26T06:53:44;100281.61;;;0.95;97.91
77017;BME280;65949;53.132;17.930;2024-02-26T06:56:11;100285.48;;;0.99;97.87
77017;BME280;65949;53.132;17.930;2024-02-26T06:58:37;100282.59;;;1.03;97.73
77017;BME280;65949;53.132;17.930;2024-02-26T07:01:04;100286.98;;;1.07;97.63
77017;BME280;65949;53.132;17.930;2024-02-26T07:03:31;100285.02;;;1.09;97.45
77017;BME280;65949;53.132;17.930;2024-02-26T07:05:59;100287.77;;;1.09;97.58
77017;BME280;65949;53.132;17.930;2024-02-26T07:08:26;100287.84;;;1.16;97.93
77017;BME280;65949;53.132;17.930;2024-02-26T07:10:52;100290.98;;;1.19;97.55
77017;BME280;65949;53.132;17.930;2024-02-26T07:13:19;100288.05;;;1.22;97.45
77017;BME280;65949;53.132;17.930;2024-02-26T07:15:46;100289.71;;;1.29;97.75
77017;BME280;65949;53.132;17.930;2024-02-26T07:18:12;100287.38;;;1.34;97.63
77017;BME280;65949;53.132;17.930;2024-02-26T07:20:39;100290.95;;;1.36;97.57
77017;BME280;65949;53.132;17.930;2024-02-26T07:23:06;100293.16;;;1.42;97.67
77017;BME280;65949;53.132;17.930;2024-02-26T07:25:33;100292.58;;;1.48;97.59
77017;BME280;65949;53.132;17.930;2024-02-26T07:28:00;100291.85;;;1.56;97.59
77017;BME280;65949;53.132;17.930;2024-02-26T07:30:26;100297.00;;;1.65;97.66
77017;BME280;65949;53.132;17.930;2024-02-26T07:32:53;100300.00;;;1.75;97.56
77017;BME280;65949;53.132;17.930;2024-02-26T07:35:20;100303.34;;;1.80;97.24
77017;BME280;65949;53.132;17.930;2024-02-26T07:37:49;100303.80;;;1.84;97.04
77017;BME280;65949;53.132;17.930;2024-02-26T07:40:16;100305.85;;;1.88;97.02
77017;BME280;65949;53.132;17.930;2024-02-26T07:42:43;100302.42;;;1.93;97.06
77017;BME280;65949;53.132;17.930;2024-02-26T07:45:10;100303.63;;;1.98;96.73
77017;BME280;65949;53.132;17.930;2024-02-26T07:47:37;100310.76;;;2.04;96.91
77017;BME280;65949;53.132;17.930;2024-02-26T07:50:09;100310.64;;;2.07;96.76
77017;BME280;65949;53.132;17.930;2024-02-26T07:52:38;100312.40;;;2.14;96.91
77017;BME280;65949;53.132;17.930;2024-02-26T07:55:06;100317.50;;;2.25;97.27
77017;BME280;65949;53.132;17.930;2024-02-26T07:57:33;100319.17;;;2.35;97.26
77017;BME280;65949;53.132;17.930;2024-02-26T08:00:03;100319.84;;;2.43;97.26
77017;BME280;65949;53.132;17.930;2024-02-26T08:02:31;100323.31;;;2.52;97.17
77017;BME280;65949;53.132;17.930;2024-02-26T08:04:58;100324.41;;;2.59;96.58
77017;BME280;65949;53.132;17.930;2024-02-26T08:07:24;100326.91;;;2.62;96.26
77017;BME280;65949;53.132;17.930;2024-02-26T08:09:52;100323.29;;;2.61;95.78
77017;BME280;65949;53.132;17.930;2024-02-26T08:12:18;100329.10;;;2.62;95.99
77017;BME280;65949;53.132;17.930;2024-02-26T08:14:45;100332.98;;;2.61;95.45
77017;BME280;65949;53.132;17.930;2024-02-26T08:17:12;100332.83;;;2.57;95.52
77017;BME280;65949;53.132;17.930;2024-02-26T08:19:38;100333.30;;;2.57;95.74
77017;BME280;65949;53.132;17.930;2024-02-26T08:22:05;100334.89;;;2.59;96.36
77017;BME280;65949;53.132;17.930;2024-02-26T08:24:32;100336.14;;;2.62;96.06
77017;BME280;65949;53.132;17.930;2024-02-26T08:26:58;100338.80;;;2.69;96.34
77017;BME280;65949;53.132;17.930;2024-02-26T08:29:25;100336.47;;;2.72;96.07
77017;BME280;65949;53.132;17.930;2024-02-26T08:31:52;100332.92;;;2.82;96.08
77017;BME280;65949;53.132;17.930;2024-02-26T08:34:18;100331.44;;;2.95;95.96
77017;BME280;65949;53.132;17.930;2024-02-26T08:36:45;100329.69;;;3.00;95.89
77017;BME280;65949;53.132;17.930;2024-02-26T08:39:12;100332.30;;;3.05;95.62
77017;BME280;65949;53.132;17.930;2024-02-26T08:41:40;100332.66;;;3.05;94.96
77017;BME280;65949;53.132;17.930;2024-02-26T08:44:06;100332.48;;;3.07;95.53
77017;BME280;65949;53.132;17.930;2024-02-26T08:46:33;100333.40;;;3.17;95.93
77017;BME280;65949;53.132;17.930;2024-02-26T08:49:00;100340.67;;;3.27;95.83
77017;BME280;65949;53.132;17.930;2024-02-26T08:51:27;100340.17;;;3.32;95.74
77017;BME280;65949;53.132;17.930;2024-02-26T08:53:54;100344.71;;;3.35;95.84
77017;BME280;65949;53.132;17.930;2024-02-26T08:56:21;100346.48;;;3.49;96.26
77017;BME280;65949;53.132;17.930;2024-02-26T08:58:48;100343.72;;;3.67;95.98
77017;BME280;65949;53.132;17.930;2024-02-26T09:01:19;100341.83;;;3.84;95.90
77017;BME280;65949;53.132;17.930;2024-02-26T09:03:46;100347.90;;;3.97;96.09
77017;BME280;65949;53.132;17.930;2024-02-26T09:06:15;100348.30;;;4.06;95.76
77017;BME280;65949;53.132;17.930;2024-02-26T09:08:42;100347.38;;;4.11;95.43
77017;BME280;65949;53.132;17.930;2024-02-26T09:11:08;100344.86;;;4.16;95.42
77017;BME280;65949;53.132;17.930;2024-02-26T09:13:36;100347.42;;;4.23;95.92
77017;BME280;65949;53.132;17.930;2024-02-26T09:16:03;100346.61;;;4.30;96.09
77017;BME280;65949;53.132;17.930;2024-02-26T09:18:30;100347.80;;;4.39;95.97
77017;BME280;65949;53.132;17.930;2024-02-26T09:20:57;100350.85;;;4.51;95.98
77017;BME280;65949;53.132;17.930;2024-02-26T09:23:23;100354.05;;;4.64;96.32
77017;BME280;65949;53.132;17.930;2024-02-26T09:25:50;100353.08;;;4.76;96.12
77017;BME280;65949;53.132;17.930;2024-02-26T09:28:17;100349.40;;;4.88;95.90
77017;BME280;65949;53.132;17.930;2024-02-26T09:30:44;100349.92;;;5.02;95.90
77017;BME280;65949;53.132;17.930;2024-02-26T09:33:11;100349.01;;;5.18;95.78
77017;BME280;65949;53.132;17.930;2024-02-26T09:35:38;100346.27;;;5.34;95.22
77017;BME280;65949;53.132;17.930;2024-02-26T09:38:04;100347.38;;;5.49;94.69
77017;BME280;65949;53.132;17.930;2024-02-26T09:40:31;100349.81;;;5.66;92.91
77017;BME280;65949;53.132;17.930;2024-02-26T09:43:00;100348.17;;;5.80;92.90
77017;BME280;65949;53.132;17.930;2024-02-26T09:45:30;100343.64;;;5.96;92.80
77017;BME280;65949;53.132;17.930;2024-02-26T09:47:59;100347.42;;;6.10;91.90
77017;BME280;65949;53.132;17.930;2024-02-26T09:50:27;100344.69;;;6.24;91.08
77017;BME280;65949;53.132;17.930;2024-02-26T09:52:54;100341.89;;;6.37;90.59
77017;BME280;65949;53.132;17.930;2024-02-26T09:55:21;100344.07;;;6.50;90.39
77017;BME280;65949;53.132;17.930;2024-02-26T09:57:48;100347.39;;;6.62;89.18
77017;BME280;65949;53.132;17.930;2024-02-26T10:00:19;100351.96;;;6.75;89.60
77017;BME280;65949;53.132;17.930;2024-02-26T10:02:47;100349.19;;;6.92;89.78
77017;BME280;65949;53.132;17.930;2024-02-26T10:05:17;100346.08;;;7.05;88.51
77017;BME280;65949;53.132;17.930;2024-02-26T10:07:45;100345.81;;;7.18;88.10
77017;BME280;65949;53.132;17.930;2024-02-26T10:10:14;100342.89;;;7.32;85.67
77017;BME280;65949;53.132;17.930;2024-02-26T10:12:41;100343.38;;;7.44;85.27
77017;BME280;65949;53.132;17.930;2024-02-26T10:15:08;100343.50;;;7.57;85.04
77017;BME280;65949;53.132;17.930;2024-02-26T10:17:35;100345.80;;;7.71;85.33
77017;BME280;65949;53.132;17.930;2024-02-26T10:20:14;100342.64;;;7.87;85.22
77017;BME280;65949;53.132;17.930;2024-02-26T10:22:42;100339.27;;;8.01;84.52
77017;BME280;65949;53.132;17.930;2024-02-26T10:25:09;100335.44;;;8.14;82.17
77017;BME280;65949;53.132;17.930;2024-02-26T10:27:36;100333.55;;;8.26;82.24
77017;BME280;65949;53.132;17.930;2024-02-26T10:30:23;100334.17;;;8.36;80.82
77017;BME280;65949;53.132;17.930;2024-02-26T10:32:49;100330.66;;;8.49;80.96
77017;BME280;65949;53.132;17.930;2024-02-26T10:35:17;100332.29;;;8.62;79.62
77017;BME280;65949;53.132;17.930;2024-02-26T10:37:44;100332.42;;;8.77;80.50
77017;BME280;65949;53.132;17.930;2024-02-26T10:40:14;100330.92;;;8.91;80.99
77017;BME280;65949;53.132;17.930;2024-02-26T10:42:42;100325.35;;;9.03;79.70
77017;BME280;65949;53.132;17.930;2024-02-26T10:45:09;100326.46;;;9.14;78.84
77017;BME280;65949;53.132;17.930;2024-02-26T10:47:37;100325.02;;;9.24;78.46
77017;BME280;65949;53.132;17.930;2024-02-26T10:50:05;100323.89;;;9.35;77.23
77017;BME280;65949;53.132;17.930;2024-02-26T10:52:34;100329.73;;;9.46;77.36
77017;BME280;65949;53.132;17.930;2024-02-26T10:55:02;100333.66;;;9.52;77.38
77017;BME280;65949;53.132;17.930;2024-02-26T10:57:33;100336.91;;;9.56;77.43
77017;BME280;65949;53.132;17.930;2024-02-26T11:00:02;100335.79;;;9.61;75.93
77017;BME280;65949;53.132;17.930;2024-02-26T11:02:33;100331.77;;;9.60;74.04
77017;BME280;65949;53.132;17.930;2024-02-26T11:05:04;100328.70;;;9.60;73.76
77017;BME280;65949;53.132;17.930;2024-02-26T11:07:32;100322.64;;;9.64;73.67
77017;BME280;65949;53.132;17.930;2024-02-26T11:10:02;100318.02;;;9.66;72.70
77017;BME280;65949;53.132;17.930;2024-02-26T11:12:31;100317.67;;;9.68;73.86
77017;BME280;65949;53.132;17.930;2024-02-26T11:14:59;100316.29;;;9.75;74.36
77017;BME280;65949;53.132;17.930;2024-02-26T11:17:29;100312.27;;;9.83;72.35
77017;BME280;65949;53.132;17.930;2024-02-26T11:19:59;100317.60;;;9.94;73.29
77017;BME280;65949;53.132;17.930;2024-02-26T11:22:26;100319.38;;;10.07;73.64
77017;BME280;65949;53.132;17.930;2024-02-26T11:24:53;100315.88;;;10.14;73.62
77017;BME280;65949;53.132;17.930;2024-02-26T11:27:25;100313.59;;;10.19;72.32
77017;BME280;65949;53.132;17.930;2024-02-26T11:29:53;100315.84;;;10.27;73.15
77017;BME280;65949;53.132;17.930;2024-02-26T11:32:21;100317.79;;;10.33;72.34
77017;BME280;65949;53.132;17.930;2024-02-26T11:34:48;100318.27;;;10.34;72.45
77017;BME280;65949;53.132;17.930;2024-02-26T11:37:17;100317.02;;;10.38;73.12
77017;BME280;65949;53.132;17.930;2024-02-26T11:39:45;100317.63;;;10.36;72.95
77017;BME280;65949;53.132;17.930;2024-02-26T11:42:16;100325.08;;;10.33;72.57
77017;BME280;65949;53.132;17.930;2024-02-26T11:44:42;100324.36;;;10.40;73.05
77017;BME280;65949;53.132;17.930;2024-02-26T11:47:12;100326.09;;;10.46;71.98
77017;BME280;65949;53.132;17.930;2024-02-26T11:49:39;100320.05;;;10.52;71.88
77017;BME280;65949;53.132;17.930;2024-02-26T11:52:10;100318.55;;;10.60;72.34
77017;BME280;65949;53.132;17.930;2024-02-26T11:54:54;100316.05;;;10.70;71.69
77017;BME280;65949;53.132;17.930;2024-02-26T12:02:46;100316.63;;;10.84;71.23
77017;BME280;65949;53.132;17.930;2024-02-26T12:05:15;100324.18;;;10.89;71.06
77017;BME280;65949;53.132;17.930;2024-02-26T12:07:47;100321.88;;;10.97;71.62
77017;BME280;65949;53.132;17.930;2024-02-26T12:10:27;100325.53;;;11.07;70.95
77017;BME280;65949;53.132;17.930;2024-02-26T12:12:59;100321.91;;;11.18;70.89
77017;BME280;65949;53.132;17.930;2024-02-26T12:15:31;100320.00;;;11.33;71.62
77017;BME280;65949;53.132;17.930;2024-02-26T12:18:03;100315.48;;;11.47;71.20
77017;BME280;65949;53.132;17.930;2024-02-26T12:20:30;100314.66;;;11.62;71.05
77017;BME280;65949;53.132;17.930;2024-02-26T12:22:57;100314.39;;;11.81;70.09
77017;BME280;65949;53.132;17.930;2024-02-26T12:25:28;100306.93;;;12.00;70.51
77017;BME280;65949;53.132;17.930;2024-02-26T12:27:56;100303.15;;;12.14;68.63
77017;BME280;65949;53.132;17.930;2024-02-26T12:30:23;100307.38;;;12.17;68.22
77017;BME280;65949;53.132;17.930;2024-02-26T12:32:53;100311.02;;;12.20;69.25
77017;BME280;65949;53.132;17.930;2024-02-26T12:35:24;100309.80;;;12.23;68.67
77017;BME280;65949;53.132;17.930;2024-02-26T12:37:52;100306.03;;;12.22;68.40
77017;BME280;65949;53.132;17.930;2024-02-26T12:40:20;100306.11;;;12.19;68.72
77017;BME280;65949;53.132;17.930;2024-02-26T12:42:47;100306.45;;;12.15;68.74
77017;BME280;65949;53.132;17.930;2024-02-26T12:45:15;100302.33;;;12.13;68.75
77017;BME280;65949;53.132;17.930;2024-02-26T12:47:44;100303.11;;;12.12;67.70
77017;BME280;65949;53.132;17.930;2024-02-26T12:50:12;100301.33;;;12.12;66.67
77017;BME280;65949;53.132;17.930;2024-02-26T12:52:41;100300.46;;;12.19;66.89
77017;BME280;65949;53.132;17.930;2024-02-26T12:55:12;100294.96;;;12.28;67.44